This is the latest recevied weather packets stored in our database for station/object DELTON-WX. If no packets are shown the sender has not sent any weather packets the latest 1 day(s).
| Time | Temp. | Humidity | Pressure | Rain* | Wind** | Luminosity | Snow |
|---|---|---|---|---|---|---|---|
| 1778085952 | 11.67° C | 37% | 979.9 hPa | 0 mm | - | - | - |
| 1778085064 | 10.56° C | 37% | 979.9 hPa | 0 mm | - | - | - |
| 1778084152 | 10.56° C | 37% | 979.9 hPa | 0 mm | - | - | - |
| 1778076084 | 7.78° C | 48% | 979.5 hPa | 0 mm | - | - | - |
| 1778073349 | 6.67° C | 60% | 978.7 hPa | 0 mm | - | - | - |
| 1778072479 | 6.11° C | 60% | 978.7 hPa | 0 mm | - | - | - |
| 1778067951 | 3.89° C | 71% | 977 hPa | 0 mm | - | - | - |
| 1778067067 | 3.89° C | 74% | 977 hPa | 0 mm | - | - | - |
| 1778065282 | 2.78° C | 74% | 977 hPa | 0 mm | - | - | - |
| 1778062549 | 3.33° C | 70% | 976.9 hPa | 0 mm | - | - | - |
| 1778060749 | 3.33° C | 67% | 975.7 hPa | 0 mm | - | - | - |
| 1778059865 | 3.33° C | 67% | 976.3 hPa | 0 mm | - | - | - |
| 1778058948 | 3.89° C | 67% | 976.3 hPa | 0 mm | - | - | - |
| 1778054484 | 4.44° C | 69% | 976.2 hPa | 0 mm | - | - | - |
| 1778053547 | 4.44° C | 68% | 976.1 hPa | 0 mm | - | - | - |
| 1778051747 | 5° C | 68% | 976.1 hPa | 0 mm | - | - | - |
| 1778050876 | 5° C | 68% | 976.1 hPa | 0 mm | - | - | - |
| 1778048148 | 5.56° C | 71% | 976.3 hPa | 0 mm | - | - | - |
| 1778047290 | 6.11° C | 71% | 976.3 hPa | 0 mm | - | - | - |
| 1778046349 | 6.11° C | 66% | 976.6 hPa | 0 mm | - | - | - |
| 1778044548 | 6.11° C | 68% | 976.2 hPa | 0 mm | - | - | - |
| 1778043684 | 6.67° C | 68% | 976.2 hPa | 0 mm | - | - | - |
| 1778042748 | 6.67° C | 63% | 977.4 hPa | 0 mm | - | - | - |
| 1778041863 | 6.67° C | 68% | 976.8 hPa | 0 mm | - | - | - |
| 1778040948 | 6.67° C | 68% | 976.8 hPa | 0 mm | - | - | - |
* Rain latest hour (hover to see other rain measurements)
** Current wind speed in m/s (hover to see current wind gust speed)